Roros, Roros Airport (ENRO)

NameRoros Airport
CityRoros
CountryNorway
ICAOENRO
IATARRS
Altitude626 m
CoordinatesGoogle Map
Live Air TrafficLiveATC.net
METARENRO 220650Z 11006KT 9999 -FZRA BKN012 M04/M04 Q1029
2019-02-22 06:50:00 Wind: East (110°) 3.09 m/s - Visibility: > 10000 m - Weather: Light Freezing Rain - Temperature: -4 °C - Dew point: -4 °C - Humidity: 100% - Pressure: 1029 hPa

Sorry, no flights used the airport in this database.